Glennallen, AK (99588)

1:03 PM AKDT on March 29, 2015 (GMT -0800)
AKDOT Glenn Highway @ MP 176.6 | | Change Station
CLOSE
Current Station
Personal Weather Station
Location: Glennallen, AK
Elevation: 2112 ft
Nearby Weather Stations

Elev 2112 ft 62.11 °N, 145.85 °W | Updated 38 minutes ago

Partly Cloudy
Partly Cloudy
32 °F
Feels Like 26 °F
N
6
Wind Variable Wind from ENE
Gusts 9.0 mph

Today
High -- | Low -- °F
--% Chance of Precip.
Yesterday
High -- | Low -- °F
Precip. -- in
7:17 AM 8:24 PM
Waxing Gibbous, 74% visible
Pressure 29.51 in
Visibility 10.0 miles
Clouds Few 11000 ft
Windchill 26 °F
Dew Point 21 °F
Humidity 62%
Rainfall in
Snow Depth Not available.
UV 3 out of 12
Pollen Not available.
Air Quality Not available.
Flu Activity Not available.
METAR PAGK 292053Z AUTO 13005KT 10SM FEW110 02/M06 A2944 RMK AO2 SLP993 T00221061 50003 TSNO

More Conditions Fewer Conditions

Pressure 29.51 in
Visibility 10.0 miles
Clouds Few 11000 ft
Windchill 26 °F
Dew Point 21 °F
Humidity 62%
Rainfall in
Snow Depth Not available.
UV 3 out of 12
Pollen Not available.
Air Quality Not available.
Flu Activity Not available.
METAR PAGK 292053Z AUTO 13005KT 10SM FEW110 02/M06 A2944 RMK AO2 SLP993 T00221061 50003 TSNO

More Conditions Fewer Conditions

10-Day Weather Forecast

Almanac

Astronomy

Mar. 29, 2015 Rise Set
Actual Time
Civil Twilight
Nautical Twilight
Astronomical Twilight
Moon
Length of Visible Light
Length of Day
Tomorrow will be .
, % of the Moon is Illuminated

Today's Extremes

State Highs State Lows

Community

WunderPhotos

Upload Photos

1,809,349 photos uploaded!

WunderBlogs® & News

Nearby

Air Quality

  Air Quality AQ Index Pollutant
Not available.

Snow Depth

Station Depth Elevation

Earthquake Activity

City Distance Mag. Time & Date
Minimum magnitude displayed is 2.5.

Coastal Water Temperatures

Place Temperature

Stations

Nearby Weather Stations

Station Location Temp. Windchill Dew Point Humidity Wind Precip. Elev Updated Type